Data for 07/03/2015

Time Sea-Level Adjusted Pressure Absolute Pressure Temperature Relative Humidity Dew Point   
(mb) (inHg) (mb) (inHg) (C) (F) (%) (C) (F)
00:05 1021 30.15 850 25.1 20.1 68.2 47 8.5 47.2
00:10 1021 30.15 850 25.1 20 68.1 47 8.5 47.3
00:15 1021 30.15 850 25.1 20 67.9 47 8.5 47.3
00:20 1021 30.15 850 25.1 19.9 67.7 48 8.5 47.3
00:25 1021 30.15 850 25.1 19.8 67.6 48 8.5 47.3
00:30 1021 30.15 850 25.1 19.8 67.6 48 8.5 47.3
00:35 1021 30.15 850 25.1 19.7 67.4 48 8.5 47.4
00:40 1021 30.15 850 25.1 19.6 67.3 48 8.5 47.3
00:45 1021 30.15 850 25.1 19.6 67.3 48 8.6 47.4
00:50 1021 30.15 850 25.1 19.5 67.1 48 8.5 47.3
00:55 1021 30.15 850 25.1 19.5 67 49 8.6 47.4
01:00 1021 30.15 850 25.1 19.4 66.9 49 8.7 47.6
01:05 1021 30.15 850 25.1 19.2 66.5 50 8.6 47.5
01:10 1021 30.15 850 25.1 19.1 66.3 50 8.6 47.6
01:15 1021 30.15 850 25.1 19 66.2 51 8.6 47.5
01:20 1021 30.15 850 25.1 19 66.2 50 8.5 47.3
01:25 1021 30.15 850 25.1 19.1 66.3 50 8.6 47.6
01:30 1020 30.12 850 25.1 19 66.1 51 8.6 47.5
01:35 1020 30.12 850 25.1 18.9 66 51 8.6 47.4
01:40 1020 30.12 850 25.1 18.9 66.1 50 8.5 47.3
01:45 1020 30.12 850 25.1 19 66.1 51 8.6 47.5
01:50 1020 30.12 850 25.1 18.9 66.1 50 8.5 47.4
01:55 1020 30.12 850 25.1 18.9 66 50 8.5 47.3
02:00 1020 30.12 850 25.1 18.9 65.9 51 8.5 47.4
02:05 1020 30.12 850 25.1 18.9 65.9 50 8.4 47.2
02:10 1020 30.12 850 25.1 18.9 66.1 50 8.5 47.2
02:15 1020 30.12 850 25.1 18.9 66 51 8.6 47.4
02:20 1020 30.12 850 25.1 18.8 65.9 50 8.5 47.2
02:25 1020 30.12 850 25.1 18.8 65.8 51 8.5 47.2
02:30 1020 30.12 850 25.1 18.8 65.8 51 8.5 47.2
02:35 1020 30.12 850 25.1 18.7 65.6 51 8.5 47.2
02:40 1021 30.15 850 25.1 18.7 65.7 51 8.4 47.2
02:45 1021 30.15 850 25.1 18.7 65.6 51 8.4 47.2
02:50 1021 30.15 850 25.1 18.6 65.5 51 8.4 47.2
02:55 1021 30.15 850 25.1 18.6 65.4 51 8.4 47.1
03:00 1021 30.15 850 25.1 18.6 65.4 51 8.4 47.2
03:05 1021 30.15 850 25.1 18.5 65.3 51 8.4 47.1
03:10 1020 30.12 850 25.1 18.5 65.2 51 8.4 47.1
03:15 1020 30.12 850 25.1 18.4 65.1 52 8.4 47.1
03:20 1020 30.12 850 25.1 18.3 65 52 8.4 47
03:25 1020 30.12 850 25.1 18.3 65 52 8.3 47
03:30 1020 30.12 850 25.1 18.4 65 52 8.4 47.1
03:35 1020 30.12 849 25.07 18.3 64.9 52 8.3 46.9
03:40 1020 30.12 849 25.07 18.3 64.9 52 8.4 47.1
03:45 1020 30.12 849 25.07 18.1 64.6 53 8.4 47.2
03:50 1020 30.12 849 25.07 18 64.4 53 8.4 47.2
03:55 1020 30.12 849 25.07 17.9 64.2 53 8.4 47.1
04:00 1020 30.12 849 25.07 17.9 64.2 54 8.6 47.5
04:05 1020 30.12 849 25.07 17.9 64.1 53 8.3 47
04:10 1020 30.12 849 25.07 17.9 64.1 53 8.3 47
04:15 1020 30.12 849 25.07 17.9 64.1 53 8.3 47
04:20 1020 30.12 849 25.07 17.8 64 53 8.3 47
04:25 1020 30.12 849 25.07 17.8 64 54 8.3 47
04:30 1020 30.12 850 25.1 17.8 64 54 8.3 46.9
04:35 1020 30.12 850 25.1 17.8 64 54 8.4 47
04:40 1020 30.12 850 25.1 17.7 63.8 54 8.4 47
04:45 1020 30.12 850 25.1 17.6 63.7 55 8.4 47.2
04:50 1020 30.12 850 25.1 17.4 63.3 56 8.5 47.4
04:55 1020 30.12 850 25.1 17.1 62.8 57 8.5 47.3
05:00 1020 30.12 850 25.1 17 62.5 57 8.5 47.3
05:05 1020 30.12 850 25.1 16.9 62.4 57 8.4 47.2
05:10 1020 30.12 850 25.1 16.9 62.5 57 8.4 47.1
05:15 1020 30.12 850 25.1 17 62.6 57 8.5 47.3
05:20 1020 30.12 850 25.1 17 62.6 57 8.5 47.3
05:25 1020 30.12 850 25.1 17.1 62.7 57 8.5 47.3
05:30 1020 30.12 850 25.1 17.1 62.7 57 8.5 47.3
05:35 1020 30.12 850 25.1 17.1 62.8 57 8.6 47.5
05:40 1020 30.12 850 25.1 17.1 62.8 57 8.6 47.5
05:45 1020 30.12 850 25.1 17.2 62.9 57 8.6 47.5
05:50 1020 30.12 850 25.1 17.3 63.1 56 8.7 47.6
05:55 1020 30.12 850 25.1 17.4 63.3 56 8.7 47.6
06:00 1020 30.12 850 25.1 17.5 63.5 56 8.7 47.7
06:05 1020 30.12 850 25.1 17.6 63.7 57 9 48.2
06:10 1020 30.12 850 25.1 17.4 63.3 58 9.2 48.5
06:15 1020 30.12 850 25.1 17.2 62.9 58 9 48.2
06:20 1020 30.12 850 25.1 17.3 63.2 58 9 48.2
06:25 1020 30.12 850 25.1 17.4 63.3 58 9.2 48.5
06:30 1020 30.12 850 25.1 17.6 63.6 56 8.9 48
06:35 1020 30.12 850 25.1 17.7 63.8 57 9.1 48.4
06:40 1020 30.12 850 25.1 18 64.4 55 8.8 47.9
06:45 1020 30.12 850 25.1 17.9 64.2 54 8.6 47.5
06:50 1020 30.12 850 25.1 17.9 64.2 55 8.9 48
06:55 1020 30.12 850 25.1 18.1 64.5 53 8.4 47.2
07:00 1020 30.12 850 25.1 18.2 64.8 53 8.5 47.3
07:05 1020 30.12 850 25.1 18.7 65.6 52 8.7 47.7
07:10 1020 30.12 850 25.1 18.9 66 50 8.3 46.9
07:15 1020 30.12 850 25.1 19 66.1 50 8.3 46.9
07:20 1020 30.12 849 25.07 19.1 66.4 49 8.2 46.8
07:25 1020 30.12 849 25.07 19.5 67.1 48 8.2 46.8
07:30 1020 30.12 849 25.07 20 67.9 47 8.4 47.1
07:35 1020 30.12 849 25.07 20.8 69.4 46 8.9 48.1
07:40 1020 30.12 849 25.07 21.1 70.1 44 8.7 47.7
07:45 1020 30.12 849 25.07 21.4 70.6 44 8.9 48
07:50 1020 30.12 849 25.07 21.8 71.3 43 8.9 48.1
07:55 1020 30.12 849 25.07 22.1 71.8 43 9 48.2
08:00 1020 30.12 849 25.07 21.7 71 42 8.4 47.1
08:05 1020 30.12 849 25.07 22.4 72.2 40 8.3 47
08:10 1020 30.12 849 25.07 22.3 72.2 41 8.8 47.8
08:15 1020 30.12 849 25.07 22.5 72.5 39 8 46.4
08:20 1020 30.12 849 25.07 23.2 73.8 37 8 46.5
08:25 1020 30.12 849 25.07 23.1 73.6 37 7.7 45.9
08:30 1020 30.12 849 25.07 23.4 74.2 38 8.6 47.5
08:35 1020 30.12 849 25.07 23.6 74.5 37 8.3 47
08:40 1020 30.12 849 25.07 24 75.2 37 8.7 47.7
08:45 1020 30.12 849 25.07 23.9 75 39 9.2 48.6
08:50 1020 30.12 849 25.07 23.7 74.7 39 9.2 48.5
08:55 1020 30.12 849 25.07 23.4 74 41 9.4 49
09:00 1020 30.12 849 25.07 23 73.5 41 9.2 48.6
09:05 1020 30.12 849 25.07 23 73.4 41 9.4 48.9
09:10 1020 30.12 849 25.07 23.1 73.6 41 9.3 48.8
09:15 1020 30.12 849 25.07 23.4 74.1 39 9 48.2
09:20 1020 30.12 849 25.07 24.5 76.1 35 8.4 47.1
09:25 1020 30.12 849 25.07 25.3 77.6 34 8.7 47.6
09:30 1020 30.12 849 25.07 25.4 77.7 35 9.1 48.4
09:35 1020 30.12 849 25.07 25.5 78 33 8.4 47.2
09:40 1020 30.12 849 25.07 25.3 77.5 35 8.9 48.1
09:45 1020 30.12 849 25.07 25.1 77.1 35 8.7 47.6
09:50 1020 30.12 849 25.07 25.8 78.4 34 8.8 47.8
09:55 1020 30.12 849 25.07 26.3 79.3 33 9.2 48.5
10:00 1020 30.12 849 25.07 26.7 80.1 32 9.1 48.4
10:05 1020 30.12 849 25.07 26.6 79.9 31 8.5 47.4
10:10 1020 30.12 849 25.07 27 80.5 32 9 48.1
10:15 1020 30.12 849 25.07 26.6 79.9 32 8.6 47.5
10:20 1020 30.12 849 25.07 26.9 80.4 31 8.4 47.2
10:25 1020 30.12 849 25.07 27.1 80.7 30 8.4 47.2
10:30 1019 30.09 849 25.07 26.7 80 32 8.8 47.8
10:35 1019 30.09 849 25.07 26.8 80.3 31 8.7 47.6
10:40 1019 30.09 849 25.07 27.1 80.8 31 8.6 47.5
10:45 1019 30.09 849 25.07 26.9 80.5 31 8.6 47.6
10:50 1019 30.09 849 25.07 26.9 80.4 31 8.7 47.6
10:55 1019 30.09 849 25.07 27.3 81.1 31 8.8 47.8
11:00 1019 30.09 849 25.07 27.8 82 30 8.7 47.7
11:05 1019 30.09 848 25.04 27.7 81.8 32 9.7 49.5
11:10 1019 30.09 848 25.04 26.8 80.3 32 9 48.3
11:15 1019 30.09 848 25.04 27.6 81.7 31 9.3 48.7
11:20 1019 30.09 848 25.04 27.7 81.9 30 9.1 48.3
11:25 1019 30.09 848 25.04 28 82.5 29 8.8 47.9
11:30 1019 30.09 848 25.04 28.6 83.4 30 9.4 48.9
11:35 1019 30.09 848 25.04 28.6 83.5 29 9.3 48.8
11:40 1019 30.09 848 25.04 29 84.1 28 8.7 47.6
11:45 1019 30.09 848 25.04 29.4 84.9 27 8.5 47.3
11:50 1019 30.09 848 25.04 29.6 85.2 27 9.2 48.5
11:55 1019 30.09 848 25.04 28.5 83.3 29 9.2 48.6
12:00 1019 30.09 848 25.04 28.8 83.8 29 9.4 48.9
12:05 1019 30.09 848 25.04 29 84.3 28 9.1 48.3
12:10 1019 30.09 848 25.04 29.2 84.6 28 9.2 48.6
12:15 1019 30.09 848 25.04 29.6 85.3 26 8.3 47
12:20 1019 30.09 848 25.04 29.6 85.2 26 8.6 47.5
12:25 1018 30.06 848 25.04 30 86 26 8.9 48.1
12:30 1018 30.06 848 25.04 30 86 26 8.6 47.4
12:35 1018 30.06 848 25.04 30 86 25 8.3 47
12:40 1018 30.06 847 25.01 30.4 86.8 25 8.5 47.4
12:45 1018 30.06 847 25.01 30.8 87.5 24 8 46.4
12:50 1018 30.06 847 25.01 30.8 87.4 25 8.8 47.9
12:55 1018 30.06 847 25.01 30.4 86.8 24 8.2 46.8
13:00 1018 30.06 847 25.01 30.6 87 24 8.3 46.9
13:05 1018 30.06 847 25.01 30.8 87.4 24 8.1 46.6
13:10 1018 30.06 847 25.01 31 87.8 24 8.3 47
13:15 1018 30.06 847 25.01 31 87.7 22 7.4 45.2
13:20 1018 30.06 847 25.01 31 87.7 23 7.6 45.7
13:25 1018 30.06 847 25.01 31 87.7 20 5.9 42.5
13:30 1018 30.06 847 25.01 30.9 87.5 20 5.4 41.6
13:35 1018 30.06 847 25.01 31 87.7 21 6.2 43.2
13:40 1018 30.06 847 25.01 31.1 88.1 19 4.8 40.7
13:45 1018 30.06 847 25.01 31.1 88 19 5.3 41.6
13:50 1018 30.06 847 25.01 31.9 89.4 18 5.2 41.4
13:55 1018 30.06 847 25.01 31.9 89.4 18 5.2 41.4
14:00 1018 30.06 847 25.01 32 89.5 19 5.9 42.6
14:05 1018 30.06 847 25.01 31.7 89.1 20 6.1 42.9
14:10 1018 30.06 847 25.01 31.3 88.4 18 4.6 40.3
14:15 1017 30.03 847 25.01 30.5 86.9 20 5.5 41.9
14:20 1017 30.03 847 25.01 30.6 87.1 19 4.6 40.2
14:25 1017 30.03 847 25.01 31 87.8 19 4.7 40.5
14:30 1017 30.03 847 25.01 30.9 87.6 19 5.3 41.6
14:35 1017 30.03 847 25.01 30.5 86.9 18 4.2 39.5
14:40 1017 30.03 847 25.01 30.9 87.6 17 3.2 37.8
14:45 1017 30.03 846 24.98 31.8 89.2 15 2.3 36.2
14:50 1017 30.03 846 24.98 32.2 90 15 2.6 36.7
14:55 1017 30.03 846 24.98 31.9 89.3 16 3 37.4
15:00 1017 30.03 846 24.98 31.8 89.3 17 4.2 39.5
15:05 1017 30.03 846 24.98 31.4 88.6 16 3 37.5
15:10 1017 30.03 846 24.98 31.9 89.5 15 2.9 37.3
15:15 1017 30.03 846 24.98 31.9 89.4 16 3.1 37.6
15:20 1017 30.03 846 24.98 32.2 89.9 16 3.2 37.8
15:25 1017 30.03 846 24.98 31.8 89.2 15 2.7 36.8
15:30 1017 30.03 846 24.98 31.3 88.4 17 3.4 38.1
15:35 1017 30.03 846 24.98 31.3 88.3 17 3.6 38.6
15:40 1017 30.03 846 24.98 31.9 89.4 17 3.9 39
15:45 1017 30.03 846 24.98 32 89.6 15 2.9 37.1
15:50 1017 30.03 846 24.98 32.1 89.7 16 3.5 38.3
15:55 1017 30.03 846 24.98 32.2 90 16 3.9 39
16:00 1017 30.03 846 24.98 32.1 89.9 17 4.3 39.7
16:05 1017 30.03 846 24.98 31.8 89.3 17 4.4 39.9
16:10 1017 30.03 846 24.98 31.5 88.7 17 4.3 39.7
16:15 1017 30.03 846 24.98 31.4 88.6 16 3.1 37.5
16:20 1017 30.03 846 24.98 31.2 88.2 18 4.1 39.4
16:25 1016 30 846 24.98 31.2 88.1 17 3.7 38.6
16:30 1016 30 846 24.98 31 87.7 17 3.4 38.2
16:35 1016 30 846 24.98 31.3 88.3 17 3.8 38.9
16:40 1016 30 846 24.98 31.5 88.6 16 2.6 36.7
16:45 1016 30 846 24.98 31.6 88.9 16 3.5 38.3
16:50 1016 30 845 24.95 31.5 88.8 16 3.5 38.2
16:55 1016 30 845 24.95 31.4 88.6 15 2.1 35.8
17:00 1016 30 845 24.95 31.5 88.8 15 2.2 35.9
17:05 1016 30 845 24.95 31.7 89 15 2.3 36.1
17:10 1016 30 845 24.95 31.6 88.8 15 1.8 35.3
17:15 1016 30 845 24.95 31.6 88.9 15 2.6 36.6
17:20 1016 30 845 24.95 31.8 89.2 15 2.5 36.5
17:25 1016 30 845 24.95 32 89.6 15 2.5 36.5
17:30 1016 30 845 24.95 32.2 89.9 15 2.8 37
17:35 1016 30 845 24.95 32 89.7 15 2.7 36.8
17:40 1016 30 845 24.95 32.1 89.8 15 2.5 36.5
17:45 1016 30 845 24.95 32.2 90 15 2.7 36.9
17:50 1016 30 845 24.95 32 89.5 15 2.3 36.1
17:55 1016 30 845 24.95 31.5 88.6 15 2.1 35.8
18:00 1016 30 845 24.95 31.4 88.4 16 3 37.4
18:05 1016 30 845 24.95 31.5 88.7 15 2.4 36.3
18:10 1016 30 845 24.95 31.4 88.5 15 2.2 36
18:15 1016 30 845 24.95 31.1 88 15 2.2 35.9
18:20 1016 30 845 24.95 30.5 86.8 15 1.5 34.8
18:25 1016 30 845 24.95 30.4 86.6 15 1.6 34.8
18:30 1016 30 845 24.95 30.1 86.2 15 1 33.7
18:35 1016 30 845 24.95 29.8 85.7 15 1.2 34.2
18:40 1016 30 845 24.95 29.7 85.4 16 1.6 34.8
18:45 1016 30 845 24.95 29.6 85.4 17 1.9 35.5
18:50 1016 30 845 24.95 29.7 85.4 17 2.1 35.7
18:55 1016 30 845 24.95 29.6 85.3 17 2.5 36.5
19:00 1016 30 845 24.95 29.6 85.3 16 1.7 35
19:05 1016 30 845 24.95 29.5 85.1 17 2.5 36.4
19:10 1016 30 845 24.95 29.3 84.7 17 2.2 35.9
19:15 1016 30 845 24.95 29.1 84.4 16 0.9 33.6
19:20 1016 30 845 24.95 29.1 84.3 18 2.4 36.2
19:25 1016 30 845 24.95 29 84.2 18 2.9 37.3
19:30 1016 30 845 24.95 28.8 83.9 19 2.9 37.3
19:35 1016 30 845 24.95 28.7 83.6 18 2.6 36.7
19:40 1016 30 845 24.95 28.5 83.4 18 2.5 36.5
19:45 1016 30 845 24.95 28.4 83.1 19 3.2 37.8
19:50 1016 30 845 24.95 28.2 82.8 26 7 44.7
19:55 1016 30 845 24.95 27.7 81.8 30 8.9 47.9
20:00 1016 30 845 24.95 26.8 80.2 35 10.3 50.5
20:05 1016 30 845 24.95 26.2 79.1 35 9.9 49.8
20:10 1016 30 845 24.95 25.8 78.4 35 9.5 49.1
20:15 1016 30 845 24.95 25.2 77.4 36 9.4 48.9
20:20 1016 30 845 24.95 25 77.1 35 8.9 48
20:25 1016 30 845 24.95 24.8 76.7 38 10 49.9
20:30 1016 30 845 24.95 24.4 75.9 38 9.2 48.6
20:35 1016 30 845 24.95 23.8 74.8 37 8.6 47.4
20:40 1016 30 845 24.95 23.3 74 37 7.9 46.2
20:45 1016 30 845 24.95 22.9 73.2 38 8.1 46.6
20:50 1016 30 845 24.95 22.4 72.3 39 7.9 46.2
20:55 1016 30 845 24.95 22.6 72.7 32 5.3 41.5
21:00 1016 30 845 24.95 23 73.3 32 5.5 41.9
21:05 1016 30 845 24.95 22.8 73 31 5.1 41.2
21:10 1016 30 845 24.95 22.9 73.3 30 4.7 40.5
21:15 1016 30 845 24.95 22.8 73.1 32 5.6 42.1
21:20 1016 30 845 24.95 22.2 71.9 34 5.6 42
21:25 1016 30 845 24.95 21.8 71.2 34 5.4 41.6
21:30 1016 30 845 24.95 21.6 70.9 34 5.5 41.9
21:35 1016 30 845 24.95 21.5 70.6 36 5.9 42.7
21:40 1016 30 845 24.95 21.3 70.4 35 5.3 41.6
21:45 1016 30 845 24.95 21.3 70.3 34 5 40.9
21:50 1016 30 845 24.95 21.2 70.2 34 5 41.1
21:55 1016 30 845 24.95 21 69.9 36 5.4 41.8
22:00 1016 30 845 24.95 20.9 69.6 35 5.1 41.2
22:05 1016 30 845 24.95 20.8 69.5 34 4.7 40.4
22:10 1016 30 845 24.95 20.8 69.5 35 4.8 40.7
22:15 1016 30 845 24.95 20.7 69.3 35 4.8 40.6
22:20 1016 30 845 24.95 20.7 69.3 34 4.6 40.3
22:25 1016 30 845 24.95 20.6 69.2 34 4.4 39.9
22:30 1016 30 845 24.95 20.9 69.7 32 3.9 39
22:35 1016 30 845 24.95 21.4 70.6 32 4.1 39.4
22:40 1016 30 845 24.95 21.2 70.1 33 4.4 40
22:45 1016 30 845 24.95 20.9 69.6 32 3.9 39
22:50 1016 30 845 24.95 20.9 69.7 33 4.2 39.5
22:55 1016 30 845 24.95 20.7 69.3 33 4.1 39.4
23:00 1016 30 845 24.95 20.7 69.2 32 3.7 38.7
23:05 1016 30 845 24.95 20.7 69.3 33 4.1 39.4
23:10 1016 30 845 24.95 20.5 68.9 34 4.3 39.7
23:15 1016 30 845 24.95 20.2 68.4 35 4.4 40
23:20 1016 30 845 24.95 19.9 67.8 36 4.4 39.9
23:25 1016 30 845 24.95 19.9 67.9 37 5.2 41.3
23:30 1016 30 845 24.95 19.9 67.9 35 4.1 39.3
23:35 1016 30 845 24.95 19.8 67.6 37 4.8 40.6
23:40 1016 30 845 24.95 19.7 67.5 37 4.7 40.5
23:45 1016 30 845 24.95 19.7 67.5 35 3.8 38.9
23:50 1016 30 846 24.98 19.9 67.7 33 3.4 38.1
23:55 1016 30 846 24.98 20.2 68.3 36 4.8 40.7
24:00 1016 30 846 24.98 19.6 67.3 39 5.3 41.5